Главная страница
METAR-TAF:

METAR-TAF

Аэропорты :

Biak, Индонезия

широта: 01-11S, долгота: 136-07E, высота над уровнем моря: 11 м

Текущие метеонаблюдения

Эта сводка был подготовлена 42 минут назад, в 14:00 UTC
Ветер 3 Узел от северный, изменяющийся между юго-юго-восточный и северный
Температура 26°C
Влажность 94%
Давление 1010 hPa
Видимость 10 км и более
небольшая облачность на высоте 1800 фута
Рассеянная облачность на высоте 10000 фута

METAR: WABB 261400Z 35003KT 160V350 9999 FEW018 BKN100 26/25 Q1010 NOSIG

Время: 21:42 (14:42 UTC)

Прогноз

Эта сводка был подготовлена 3 часа и 42 минут назад, в 11:00 UTC
Прогноз действительный с 26-го 12 UTC до 27-го 18 UTC
Ветер 5 Узел от северо-западный
Видимость 10 км и более
Отдельные облака на высоте 1500 фута
изменения
С 26-го 12 UTC до 26-го 14 UTC
Ветер Узел от северный

TAF: WABB 261100Z 2612/2718 32005KT 9999 SCT015 BECMG 2612/2614 00000KT

Метеонаблюдения и прогнозы для более 4000 аэропортов (сводки METAR и TAF).

Имеющиеся станции представлены на карте желтыми и красными точками.

Чтобы увидеть название станции, наведите на нее мышь.

Затем щелкните, чтобы увидеть метеонаблюдения и метеопрогнозы.

Управление картой: чтобы увеличить масштаб, щелкните зеленые кнопки с черным крестиком; чтобы уменьшить масштаб, щелкните зеленую кнопку с тире; для просмотра соседних карт щелкайте зеленые стрелки.


METAR-TAF: